createdAt,value
2018-10-11T00:00:46.285Z,9.89
2018-10-11T00:01:46.476Z,9.91
2018-10-11T00:02:46.360Z,9.91
2018-10-11T00:03:46.402Z,9.81
2018-10-11T00:04:46.440Z,9.81
2018-10-11T00:05:46.506Z,9.75
2018-10-11T00:06:46.519Z,9.69
2018-10-11T00:07:46.560Z,9.72
2018-10-11T00:08:46.597Z,9.71
2018-10-11T00:09:46.637Z,9.72
2018-10-11T00:10:46.679Z,9.78
2018-10-11T00:11:46.719Z,9.76
2018-10-11T00:12:46.758Z,9.75
2018-10-11T00:13:46.801Z,9.76
2018-10-11T00:14:46.837Z,9.76
2018-10-11T00:15:46.879Z,9.78
2018-10-11T00:16:46.917Z,9.75
2018-10-11T00:17:46.954Z,9.61
2018-10-11T00:18:47.000Z,9.65
2018-10-11T00:19:47.055Z,9.61
2018-10-11T00:20:47.081Z,9.65
2018-10-11T00:21:47.114Z,9.60
2018-10-11T00:22:47.161Z,9.64
2018-10-11T00:23:47.196Z,9.64
2018-10-11T00:24:47.233Z,9.76
2018-10-11T00:25:47.271Z,9.72
2018-10-11T00:26:47.312Z,9.72
2018-10-11T00:27:47.350Z,9.78
2018-10-11T00:28:47.392Z,9.79
2018-10-11T00:29:47.430Z,9.78
2018-10-11T00:30:47.521Z,9.72
2018-10-11T00:31:47.508Z,9.81
2018-10-11T00:32:47.611Z,9.76
2018-10-11T00:33:47.593Z,9.75
2018-10-11T00:34:47.628Z,9.78
2018-10-11T00:35:47.668Z,9.74
2018-10-11T00:36:47.705Z,9.74
2018-10-11T00:37:47.746Z,9.74
2018-10-11T00:38:47.785Z,9.76
2018-10-11T00:39:47.828Z,9.71
2018-10-11T00:40:47.867Z,9.76
2018-10-11T00:41:47.905Z,9.71
2018-10-11T00:42:47.948Z,9.75
2018-10-11T00:43:47.985Z,9.74
2018-10-11T00:44:48.024Z,9.65
2018-10-11T00:45:48.062Z,9.64
2018-10-11T00:46:48.105Z,9.64
2018-10-11T00:47:48.142Z,9.48
2018-10-11T00:48:48.183Z,9.54
2018-10-11T00:49:48.222Z,9.64
2018-10-11T00:50:48.263Z,9.54
2018-10-11T00:51:48.305Z,9.65
2018-10-11T00:52:48.336Z,9.65
2018-10-11T00:53:48.378Z,9.75
2018-10-11T00:54:48.441Z,9.64
2018-10-11T00:55:48.467Z,9.71
2018-10-11T00:56:48.502Z,9.75
2018-10-11T00:57:48.534Z,9.72
2018-10-11T00:58:48.575Z,9.72
2018-10-11T00:59:48.615Z,9.68
2018-10-11T01:00:48.661Z,9.68
2018-10-11T01:01:48.694Z,9.50
2018-10-11T01:02:48.741Z,9.54
2018-10-11T01:03:48.773Z,9.57
2018-10-11T01:04:48.818Z,9.60
2018-10-11T01:05:48.851Z,9.53
2018-10-11T01:06:48.889Z,9.47
2018-10-11T01:07:48.930Z,9.53
2018-10-11T01:08:48.970Z,9.48
2018-10-11T01:09:49.052Z,9.50
2018-10-11T01:10:49.048Z,9.43
2018-10-11T01:11:49.090Z,9.48
2018-10-11T01:12:49.127Z,9.57
2018-10-11T01:13:49.165Z,9.57
2018-10-11T01:14:49.206Z,9.57
2018-10-11T01:15:49.249Z,9.54
2018-10-11T01:16:49.290Z,9.53
2018-10-11T01:17:49.322Z,9.51
2018-10-11T01:18:49.363Z,9.50
2018-10-11T01:19:49.405Z,9.57
2018-10-11T01:20:49.440Z,9.56
2018-10-11T01:21:49.486Z,9.54
2018-10-11T01:22:49.520Z,9.61
2018-10-11T01:23:49.630Z,9.53
2018-10-11T01:24:49.605Z,9.53
2018-10-11T01:25:49.636Z,9.50
2018-10-11T01:26:49.690Z,9.53
2018-10-11T01:27:49.717Z,9.39
2018-10-11T01:28:49.763Z,9.36
2018-10-11T01:29:49.888Z,9.36
2018-10-11T01:30:49.839Z,9.39
2018-10-11T01:31:49.884Z,9.35
2018-10-11T01:32:49.915Z,9.35
2018-10-11T01:33:49.956Z,9.38
2018-10-11T01:34:49.993Z,9.35
2018-10-11T01:35:50.033Z,9.28
2018-10-11T01:36:50.071Z,9.32
2018-10-11T01:37:50.115Z,9.23
2018-10-11T01:38:50.195Z,9.28
2018-10-11T01:39:50.191Z,9.26
2018-10-11T01:40:50.228Z,9.28
2018-10-11T01:41:50.269Z,9.24
2018-10-11T01:42:50.309Z,9.26
2018-10-11T01:43:50.355Z,9.31
2018-10-11T01:44:50.387Z,9.28
2018-10-11T01:45:50.428Z,9.24
2018-10-11T01:46:50.467Z,9.26
2018-10-11T01:47:50.507Z,9.23
2018-10-11T01:48:50.544Z,9.05
2018-10-11T01:49:50.586Z,9.24
2018-10-11T01:50:50.624Z,9.17
2018-10-11T01:51:50.662Z,9.20
2018-10-11T01:52:50.701Z,9.23
2018-10-11T01:53:50.818Z,9.21
2018-10-11T01:54:50.784Z,9.20
2018-10-11T01:55:50.854Z,9.15
2018-10-11T01:56:50.929Z,9.13
2018-10-11T01:57:50.941Z,9.10
2018-10-11T01:58:50.943Z,9.05
2018-10-11T01:59:50.984Z,9.02
2018-10-11T02:00:51.017Z,9.05
2018-10-11T02:01:51.054Z,9.14
2018-10-11T02:02:51.140Z,9.14
2018-10-11T02:03:51.140Z,9.17
2018-10-11T02:04:51.175Z,9.18
2018-10-11T02:05:51.212Z,9.21
2018-10-11T02:06:51.251Z,9.18
2018-10-11T02:07:51.291Z,9.15
2018-10-11T02:08:51.333Z,9.13
2018-10-11T02:09:51.375Z,9.14
2018-10-11T02:10:51.409Z,9.13
2018-10-11T02:11:51.448Z,9.14
2018-10-11T02:12:51.488Z,9.13
2018-10-11T02:13:51.528Z,9.05
2018-10-11T02:14:51.567Z,9.10
2018-10-11T02:15:51.605Z,9.11
2018-10-11T02:16:51.647Z,9.08
2018-10-11T02:17:51.685Z,8.94
2018-10-11T02:18:51.726Z,9.04
2018-10-11T02:19:51.763Z,9.04
2018-10-11T02:20:51.805Z,8.94
2018-10-11T02:21:51.900Z,8.98
2018-10-11T02:22:51.880Z,9.04
2018-10-11T02:23:51.930Z,9.04
2018-10-11T02:24:51.959Z,8.98
2018-10-11T02:25:51.998Z,9.08
2018-10-11T02:26:52.103Z,9.13
2018-10-11T02:27:52.076Z,9.11
2018-10-11T02:28:52.114Z,9.11
2018-10-11T02:29:52.157Z,9.11
2018-10-11T02:30:52.197Z,9.15
2018-10-11T02:31:52.290Z,9.14
2018-10-11T02:32:52.274Z,9.14
2018-10-11T02:33:52.312Z,9.17
2018-10-11T02:34:52.351Z,9.13
2018-10-11T02:35:52.390Z,9.21
2018-10-11T02:36:52.428Z,9.15
2018-10-11T02:37:52.468Z,9.18
2018-10-11T02:38:52.559Z,9.14
2018-10-11T02:39:52.550Z,9.14
2018-10-11T02:40:52.587Z,9.08
2018-10-11T02:41:52.625Z,9.08
2018-10-11T02:42:52.665Z,9.05
2018-10-11T02:43:52.704Z,9.11
2018-10-11T02:44:52.743Z,9.10
2018-10-11T02:45:52.785Z,9.02
2018-10-11T02:46:52.827Z,8.98
2018-10-11T02:47:52.862Z,8.96
2018-10-11T02:48:52.907Z,8.99
2018-10-11T02:49:52.939Z,9.02
2018-10-11T02:50:52.980Z,8.96
2018-10-11T02:51:53.019Z,8.91
2018-10-11T02:52:53.057Z,8.99
2018-10-11T02:53:53.096Z,8.98
2018-10-11T02:54:53.134Z,8.98
2018-10-11T02:55:53.174Z,9.08
2018-10-11T02:56:53.215Z,9.04
2018-10-11T02:57:53.252Z,8.95
2018-10-11T02:58:53.296Z,9.02
2018-10-11T02:59:53.334Z,9.10
2018-10-11T03:00:53.369Z,9.11
2018-10-11T03:01:53.408Z,9.14
2018-10-11T03:02:53.448Z,9.13
2018-10-11T03:03:53.488Z,9.14
2018-10-11T03:04:53.527Z,9.05
2018-10-11T03:05:53.567Z,9.15
2018-10-11T03:06:53.605Z,9.11
2018-10-11T03:07:53.652Z,9.01
2018-10-11T03:08:53.684Z,9.02
2018-10-11T03:09:53.731Z,8.94
2018-10-11T03:10:53.762Z,8.98
2018-10-11T03:11:53.801Z,8.91
2018-10-11T03:12:53.840Z,8.95
2018-10-11T03:13:53.889Z,9.05
2018-10-11T03:14:53.924Z,8.98
2018-10-11T03:15:53.960Z,8.98
2018-10-11T03:16:53.998Z,8.99
2018-10-11T03:17:54.047Z,9.02
2018-10-11T03:18:54.211Z,9.01
2018-10-11T03:19:54.115Z,8.96
2018-10-11T03:20:54.156Z,8.91
2018-10-11T03:21:54.193Z,8.87
2018-10-11T03:22:54.233Z,8.94
2018-10-11T03:23:54.280Z,8.94
2018-10-11T03:24:54.320Z,8.94
2018-10-11T03:25:54.349Z,8.99
2018-10-11T03:26:54.388Z,8.86
2018-10-11T03:27:54.427Z,8.94
2018-10-11T03:28:54.466Z,8.98
2018-10-11T03:29:54.507Z,8.98
2018-10-11T03:30:54.545Z,8.99
2018-10-11T03:31:54.585Z,8.80
2018-10-11T03:32:54.626Z,8.80
2018-10-11T03:33:54.663Z,8.86
2018-10-11T03:34:54.704Z,8.81
2018-10-11T03:35:54.741Z,8.81
2018-10-11T03:36:54.780Z,8.81
2018-10-11T03:37:54.970Z,8.80
2018-10-11T03:38:54.862Z,8.81
2018-10-11T03:39:54.897Z,8.79
2018-10-11T03:40:54.980Z,8.77
2018-10-11T03:41:54.976Z,8.76
2018-10-11T03:42:55.015Z,8.79
2018-10-11T03:43:55.053Z,8.81
2018-10-11T03:44:55.093Z,8.76
2018-10-11T03:45:55.135Z,8.77
2018-10-11T03:46:55.174Z,8.79
2018-10-11T03:47:55.212Z,8.79
2018-10-11T03:48:55.248Z,8.83
2018-10-11T03:49:55.288Z,8.83
2018-10-11T03:50:55.356Z,8.77
2018-10-11T03:51:55.367Z,8.81
2018-10-11T03:52:55.406Z,8.80
2018-10-11T03:53:55.445Z,8.84
2018-10-11T03:54:55.485Z,8.76
2018-10-11T03:55:55.523Z,8.87
2018-10-11T03:56:55.561Z,8.77
2018-10-11T03:57:55.601Z,8.68
2018-10-11T03:58:55.640Z,8.74
2018-10-11T03:59:55.678Z,8.63
2018-10-11T04:00:55.717Z,8.68
2018-10-11T04:01:55.757Z,8.70
2018-10-11T04:02:55.797Z,8.65
2018-10-11T04:03:55.836Z,8.68
2018-10-11T04:04:55.877Z,8.62
2018-10-11T04:05:55.914Z,8.68
2018-10-11T04:06:55.953Z,8.61
2018-10-11T04:07:55.991Z,8.62
2018-10-11T04:08:56.037Z,8.56
2018-10-11T04:09:56.069Z,8.58
2018-10-11T04:10:56.118Z,8.45
2018-10-11T04:11:56.148Z,8.47
2018-10-11T04:12:56.186Z,8.48
2018-10-11T04:13:56.225Z,8.52
2018-10-11T04:14:56.265Z,8.48
2018-10-11T04:15:56.304Z,8.48
2018-10-11T04:16:56.341Z,8.45
2018-10-11T04:17:56.389Z,8.37
2018-10-11T04:18:56.425Z,8.48
2018-10-11T04:19:56.459Z,8.41
2018-10-11T04:20:56.501Z,8.50
2018-10-11T04:21:56.536Z,8.55
2018-10-11T04:22:56.577Z,8.59
2018-10-11T04:23:56.616Z,8.59
2018-10-11T04:24:56.654Z,8.61
2018-10-11T04:25:56.704Z,8.63
2018-10-11T04:26:56.736Z,8.65
2018-10-11T04:27:56.776Z,8.61
2018-10-11T04:28:56.841Z,8.66
2018-10-11T04:29:56.886Z,8.65
2018-10-11T04:30:56.912Z,8.62
2018-10-11T04:31:56.929Z,8.58
2018-10-11T04:32:56.966Z,8.48
2018-10-11T04:33:57.010Z,8.55
2018-10-11T04:34:57.044Z,8.48
2018-10-11T04:35:57.153Z,8.43
2018-10-11T04:36:57.122Z,8.45
2018-10-11T04:37:57.161Z,8.43
2018-10-11T04:38:57.203Z,8.40
2018-10-11T04:39:57.238Z,8.36
2018-10-11T04:40:57.277Z,8.30
2018-10-11T04:41:57.317Z,8.38
2018-10-11T04:42:57.466Z,8.33
2018-10-11T04:43:57.397Z,8.37
2018-10-11T04:44:57.439Z,8.34
2018-10-11T04:45:57.472Z,8.34
2018-10-11T04:46:57.509Z,8.37
2018-10-11T04:47:57.549Z,8.34
2018-10-11T04:48:57.594Z,8.33
2018-10-11T04:49:57.627Z,8.25
2018-10-11T04:50:57.667Z,8.29
2018-10-11T04:51:57.711Z,8.25
2018-10-11T04:52:57.745Z,8.28
2018-10-11T04:53:57.785Z,8.18
2018-10-11T04:54:57.823Z,8.22
2018-10-11T04:55:57.863Z,8.12
2018-10-11T04:56:57.902Z,8.25
2018-10-11T04:57:57.939Z,8.19
2018-10-11T04:58:57.978Z,8.11
2018-10-11T04:59:58.091Z,8.16
2018-10-11T05:00:58.056Z,8.18
2018-10-11T05:01:58.095Z,8.25
2018-10-11T05:02:58.170Z,8.20
2018-10-11T05:03:58.173Z,8.29
2018-10-11T05:04:58.219Z,8.33
2018-10-11T05:05:58.254Z,8.36
2018-10-11T05:06:58.291Z,8.37
2018-10-11T05:07:58.340Z,8.41
2018-10-11T05:08:58.368Z,8.36
2018-10-11T05:09:58.407Z,8.28
2018-10-11T05:10:58.444Z,8.36
2018-10-11T05:11:58.483Z,8.36
2018-10-11T05:12:58.521Z,8.30
2018-10-11T05:13:58.560Z,8.30
2018-10-11T05:14:58.601Z,8.36
2018-10-11T05:15:58.646Z,8.36
2018-10-11T05:16:58.676Z,8.36
2018-10-11T05:17:58.715Z,8.34
2018-10-11T05:18:58.755Z,8.28
2018-10-11T05:19:58.798Z,8.33
2018-10-11T05:20:58.835Z,8.36
2018-10-11T05:21:58.900Z,8.36
2018-10-11T05:22:58.913Z,8.26
2018-10-11T05:23:58.950Z,8.19
2018-10-11T05:24:58.990Z,8.20
2018-10-11T05:25:59.077Z,8.25
2018-10-11T05:26:59.066Z,8.16
2018-10-11T05:27:59.104Z,8.19
2018-10-11T05:28:59.143Z,8.22
2018-10-11T05:29:59.180Z,8.19
2018-10-11T05:30:59.223Z,8.18
2018-10-11T05:31:59.260Z,8.15
2018-10-11T05:32:59.297Z,8.15
2018-10-11T05:33:59.335Z,8.11
2018-10-11T05:34:59.374Z,8.20
2018-10-11T05:35:59.413Z,8.11
2018-10-11T05:36:59.465Z,8.15
2018-10-11T05:37:59.495Z,8.15
2018-10-11T05:38:59.532Z,8.11
2018-10-11T05:39:59.569Z,8.15
2018-10-11T05:40:59.609Z,8.15
2018-10-11T05:41:59.646Z,8.10
2018-10-11T05:42:59.685Z,8.02
2018-10-11T05:43:59.730Z,8.16
2018-10-11T05:44:59.763Z,8.10
2018-10-11T05:45:59.805Z,8.05
2018-10-11T05:46:59.850Z,8.11
2018-10-11T05:47:59.879Z,8.07
2018-10-11T05:48:59.938Z,8.15
2018-10-11T05:49:59.960Z,8.11
2018-10-11T05:51:00.018Z,8.04
2018-10-11T05:52:00.036Z,8.04
2018-10-11T05:53:00.076Z,8.12
2018-10-11T05:54:00.112Z,8.04
2018-10-11T05:55:00.153Z,8.05
2018-10-11T05:56:00.192Z,8.02
2018-10-11T05:57:00.229Z,7.95
2018-10-11T05:58:00.267Z,8.05
2018-10-11T05:59:00.307Z,8.04
2018-10-11T06:00:00.346Z,8.01
2018-10-11T06:01:00.388Z,8.04
2018-10-11T06:02:00.426Z,8.04
2018-10-11T06:03:00.463Z,8.01
2018-10-11T06:04:00.507Z,8.05
2018-10-11T06:05:00.538Z,8.04
2018-10-11T06:06:00.578Z,8.07
2018-10-11T06:07:00.619Z,8.07
2018-10-11T06:08:00.666Z,8.12
2018-10-11T06:09:00.693Z,8.12
2018-10-11T06:10:00.736Z,8.08
2018-10-11T06:11:00.774Z,8.11
2018-10-11T06:12:00.898Z,8.15
2018-10-11T06:13:00.849Z,8.15
2018-10-11T06:14:00.890Z,8.10
2018-10-11T06:15:00.928Z,8.12
2018-10-11T06:16:00.967Z,8.11
2018-10-11T06:17:01.008Z,8.15
2018-10-11T06:18:01.047Z,8.18
2018-10-11T06:19:01.083Z,8.18
2018-10-11T06:20:01.123Z,8.12
2018-10-11T06:21:01.165Z,8.16
2018-10-11T06:22:01.206Z,8.08
2018-10-11T06:23:01.240Z,8.15
2018-10-11T06:24:01.278Z,8.19
2018-10-11T06:25:01.324Z,8.19
2018-10-11T06:26:01.357Z,8.23
2018-10-11T06:27:01.399Z,8.19
2018-10-11T06:28:01.442Z,8.22
2018-10-11T06:29:01.472Z,8.26
2018-10-11T06:30:01.513Z,8.22
2018-10-11T06:31:01.551Z,8.22
2018-10-11T06:32:01.590Z,8.25
2018-10-11T06:33:01.630Z,8.23
2018-10-11T06:34:01.670Z,8.28
2018-10-11T06:35:01.722Z,8.29
2018-10-11T06:36:01.785Z,8.30
2018-10-11T06:37:01.785Z,8.34
2018-10-11T06:38:01.824Z,8.41
2018-10-11T06:39:01.866Z,8.44
2018-10-11T06:40:01.903Z,8.44
2018-10-11T06:41:01.939Z,8.47
2018-10-11T06:42:02.013Z,8.47
2018-10-11T06:43:02.019Z,8.48
2018-10-11T06:44:02.060Z,8.48
2018-10-11T06:45:02.104Z,8.55
2018-10-11T06:46:02.143Z,8.59
2018-10-11T06:47:02.175Z,8.59
2018-10-11T06:48:02.230Z,8.66
2018-10-11T06:49:02.254Z,8.70
2018-10-11T06:50:02.403Z,8.63
2018-10-11T06:51:02.330Z,8.65
2018-10-11T06:52:02.370Z,8.68
2018-10-11T06:53:02.409Z,8.83
2018-10-11T06:54:02.446Z,8.83
2018-10-11T06:55:02.492Z,8.87
2018-10-11T06:56:02.595Z,8.92
2018-10-11T06:57:02.564Z,8.95
2018-10-11T06:58:02.604Z,8.92
2018-10-11T06:59:02.665Z,8.91
2018-10-11T07:00:02.682Z,8.94
2018-10-11T07:01:02.728Z,8.98
2018-10-11T07:02:02.762Z,8.94
2018-10-11T07:03:02.805Z,8.94
2018-10-11T07:04:02.837Z,8.87
2018-10-11T07:05:02.895Z,9.04
2018-10-11T07:06:02.928Z,8.99
2018-10-11T07:07:02.958Z,9.05
2018-10-11T07:08:03.040Z,9.14
2018-10-11T07:09:03.035Z,9.13
2018-10-11T07:10:03.080Z,9.21
2018-10-11T07:11:03.113Z,9.26
2018-10-11T07:12:03.158Z,9.23
2018-10-11T07:13:03.190Z,9.26
2018-10-11T07:14:03.324Z,9.31
2018-10-11T07:15:03.269Z,9.39
2018-10-11T07:16:03.319Z,9.36
2018-10-11T07:17:03.361Z,9.46
2018-10-11T07:18:03.393Z,9.58
2018-10-11T07:19:03.445Z,9.54
2018-10-11T07:20:03.466Z,9.65
2018-10-11T07:21:03.606Z,9.65
2018-10-11T07:22:03.554Z,9.61
2018-10-11T07:23:03.596Z,9.76
2018-10-11T07:24:03.630Z,9.74
2018-10-11T07:25:03.665Z,9.76
2018-10-11T07:26:03.793Z,9.78
2018-10-11T07:27:03.743Z,9.90
2018-10-11T07:28:03.783Z,9.89
2018-10-11T07:29:03.822Z,9.84
2018-10-11T07:30:03.863Z,9.90
2018-10-11T07:31:03.902Z,9.96
2018-10-11T07:32:03.939Z,9.96
2018-10-11T07:33:03.977Z,9.96
2018-10-11T07:34:04.019Z,10.07
2018-10-11T07:35:04.194Z,10.05
2018-10-11T07:36:04.097Z,10.09
2018-10-11T07:37:04.135Z,10.07
2018-10-11T07:38:04.180Z,10.11
2018-10-11T07:39:04.220Z,10.26
2018-10-11T07:40:04.256Z,10.30
2018-10-11T07:41:04.385Z,10.34
2018-10-11T07:42:04.345Z,10.36
2018-10-11T07:43:04.397Z,10.41
2018-10-11T07:44:04.415Z,10.53
2018-10-11T07:45:04.453Z,10.60
2018-10-11T07:46:04.495Z,10.67
2018-10-11T07:47:04.564Z,10.63
2018-10-11T07:48:04.625Z,10.73
2018-10-11T07:49:04.611Z,10.76
2018-10-11T07:50:04.660Z,10.81
2018-10-11T07:51:04.694Z,10.73
2018-10-11T07:52:04.791Z,10.81
2018-10-11T07:53:04.781Z,10.89
2018-10-11T07:54:04.818Z,10.89
2018-10-11T07:55:04.861Z,10.96
2018-10-11T07:56:05.253Z,11.06
2018-10-11T07:57:04.938Z,11.10
2018-10-11T07:58:04.974Z,11.15
2018-10-11T07:59:05.016Z,11.10
2018-10-11T08:00:05.061Z,11.22
2018-10-11T08:01:05.122Z,11.27
2018-10-11T08:02:05.210Z,11.37
2018-10-11T08:03:05.174Z,11.32
2018-10-11T08:04:05.220Z,11.43
2018-10-11T08:05:05.329Z,11.39
2018-10-11T08:06:05.293Z,11.49
2018-10-11T08:07:05.360Z,11.52
2018-10-11T08:08:05.396Z,11.58
2018-10-11T08:09:05.460Z,11.62
2018-10-11T08:10:05.465Z,11.65
2018-10-11T08:11:05.890Z,11.79
2018-10-11T08:12:05.617Z,11.75
2018-10-11T08:13:05.580Z,11.76
2018-10-11T08:14:05.615Z,11.80
2018-10-11T08:15:05.655Z,11.90
2018-10-11T08:16:05.735Z,11.85
2018-10-11T08:17:06.083Z,11.91
2018-10-11T08:18:05.775Z,11.94
2018-10-11T08:19:05.898Z,11.96
2018-10-11T08:20:06.039Z,12.02
2018-10-11T08:21:05.897Z,12.05
2018-10-11T08:22:05.943Z,12.13
2018-10-11T08:23:05.982Z,12.14
2018-10-11T08:24:06.021Z,12.23
2018-10-11T08:25:06.168Z,12.29
2018-10-11T08:26:06.402Z,12.32
2018-10-11T08:27:06.164Z,12.35
2018-10-11T08:28:06.201Z,12.45
2018-10-11T08:29:06.223Z,12.42
2018-10-11T08:30:06.262Z,12.49
2018-10-11T08:31:06.306Z,12.54
2018-10-11T08:32:06.372Z,12.60
2018-10-11T08:33:06.442Z,12.71
2018-10-11T08:34:06.424Z,12.75
2018-10-11T08:35:06.471Z,12.96
2018-10-11T08:36:06.507Z,13.03
2018-10-11T08:37:06.550Z,12.96
2018-10-11T08:38:06.792Z,13.11
2018-10-11T08:39:06.632Z,13.07
2018-10-11T08:40:06.670Z,13.11
2018-10-11T08:41:06.716Z,13.11
2018-10-11T08:42:06.762Z,13.14
2018-10-11T08:43:06.826Z,13.12
2018-10-11T08:44:06.957Z,13.20
2018-10-11T08:45:06.882Z,13.26
2018-10-11T08:46:06.914Z,13.20
2018-10-11T08:47:06.962Z,13.32
2018-10-11T08:48:06.996Z,13.36
2018-10-11T08:49:07.051Z,13.41
2018-10-11T08:50:07.129Z,13.41
2018-10-11T08:51:07.125Z,13.33
2018-10-11T08:52:07.169Z,13.38
2018-10-11T08:53:07.200Z,13.44
2018-10-11T08:54:07.245Z,13.55
2018-10-11T08:55:07.285Z,13.57
2018-10-11T08:56:07.446Z,13.59
2018-10-11T08:57:07.376Z,13.71
2018-10-11T08:58:07.415Z,13.62
2018-10-11T08:59:07.481Z,13.77
2018-10-11T09:00:07.498Z,13.85
2018-10-11T09:01:07.537Z,13.87
2018-10-11T09:02:07.578Z,13.95
2018-10-11T09:03:07.620Z,14.09
2018-10-11T09:04:07.829Z,14.15
2018-10-11T09:05:07.746Z,14.17
2018-10-11T09:06:07.745Z,14.28
2018-10-11T09:07:07.783Z,14.37
2018-10-11T09:08:07.822Z,14.47
2018-10-11T09:09:07.859Z,14.52
2018-10-11T09:10:07.907Z,14.51
2018-10-11T09:11:07.994Z,14.57
2018-10-11T09:12:07.993Z,14.57
2018-10-11T09:13:08.025Z,14.60
2018-10-11T09:14:08.071Z,14.65
2018-10-11T09:15:08.109Z,14.68
2018-10-11T09:16:08.159Z,14.72
2018-10-11T09:17:08.240Z,14.64
2018-10-11T09:18:08.236Z,14.69
2018-10-11T09:19:08.275Z,14.70
2018-10-11T09:20:08.498Z,14.75
2018-10-11T09:21:08.363Z,14.80
2018-10-11T09:22:08.400Z,14.92
2018-10-11T09:23:08.696Z,14.96
2018-10-11T09:24:08.639Z,15.02
2018-10-11T09:25:08.526Z,15.14
2018-10-11T09:26:08.577Z,15.02
2018-10-11T09:27:08.617Z,15.14
2018-10-11T09:28:08.850Z,15.13
2018-10-11T09:29:08.692Z,15.20
2018-10-11T09:30:08.751Z,15.28
2018-10-11T09:31:08.775Z,15.34
2018-10-11T09:32:08.818Z,15.38
2018-10-11T09:33:08.858Z,15.46
2018-10-11T09:34:08.899Z,15.51
2018-10-11T09:35:08.942Z,15.56
2018-10-11T09:36:09.027Z,15.57
2018-10-11T09:37:09.025Z,15.60
2018-10-11T09:38:09.073Z,15.65
2018-10-11T09:39:09.110Z,15.76
2018-10-11T09:40:09.160Z,15.76
2018-10-11T09:41:09.192Z,15.83
2018-10-11T09:42:09.236Z,15.87
2018-10-11T09:43:09.307Z,15.93
2018-10-11T09:44:09.327Z,16.01
2018-10-11T09:45:09.361Z,16.02
2018-10-11T09:46:09.405Z,16.14
2018-10-11T09:47:09.455Z,16.15
2018-10-11T09:48:09.487Z,16.15
2018-10-11T09:49:09.529Z,16.31
2018-10-11T09:50:09.579Z,16.41
2018-10-11T09:51:09.616Z,16.38
2018-10-11T09:52:09.657Z,16.52
2018-10-11T09:53:09.705Z,16.68
2018-10-11T09:54:09.784Z,16.68
2018-10-11T09:55:09.795Z,16.76
2018-10-11T09:56:09.825Z,16.73
2018-10-11T09:57:09.867Z,16.75
2018-10-11T09:58:09.910Z,16.73
2018-10-11T09:59:09.979Z,16.75
2018-10-11T10:00:09.992Z,16.81
2018-10-11T10:01:10.036Z,16.73
2018-10-11T10:02:10.194Z,16.83
2018-10-11T10:03:10.121Z,16.79
2018-10-11T10:04:10.163Z,16.93
2018-10-11T10:05:10.202Z,16.94
2018-10-11T10:06:10.337Z,16.97
2018-10-11T10:07:10.290Z,16.89
2018-10-11T10:08:10.396Z,16.91
2018-10-11T10:09:10.401Z,16.89
2018-10-11T10:10:10.475Z,16.96
2018-10-11T10:11:10.461Z,17.07
2018-10-11T10:12:10.502Z,17.08
2018-10-11T10:13:10.545Z,17.15
2018-10-11T10:14:10.587Z,17.18
2018-10-11T10:15:10.700Z,17.22
2018-10-11T10:16:10.672Z,17.23
2018-10-11T10:17:10.724Z,17.30
2018-10-11T10:18:10.757Z,17.41
2018-10-11T10:19:10.801Z,17.51
2018-10-11T10:20:10.843Z,17.54
2018-10-11T10:21:10.959Z,17.46
2018-10-11T10:22:10.935Z,17.48
2018-10-11T10:23:10.978Z,17.44
2018-10-11T10:24:11.015Z,17.48
2018-10-11T10:25:11.055Z,17.55
2018-10-11T10:26:11.106Z,17.59
2018-10-11T10:27:11.262Z,17.55
2018-10-11T10:28:11.191Z,17.49
2018-10-11T10:29:11.233Z,17.55
2018-10-11T10:30:11.267Z,17.55
2018-10-11T10:31:11.313Z,17.70
2018-10-11T10:32:11.363Z,17.64
2018-10-11T10:33:11.395Z,17.68
2018-10-11T10:34:11.446Z,17.75
2018-10-11T10:35:11.484Z,17.77
2018-10-11T10:36:11.528Z,17.81
2018-10-11T10:37:11.568Z,17.99
2018-10-11T10:38:11.611Z,17.96
2018-10-11T10:39:11.652Z,17.90
2018-10-11T10:40:11.696Z,18.07
2018-10-11T10:41:11.742Z,18.17
2018-10-11T10:42:11.781Z,18.10
2018-10-11T10:43:11.824Z,18.20
2018-10-11T10:44:11.868Z,18.23
2018-10-11T10:45:11.911Z,18.23
2018-10-11T10:46:11.964Z,18.35
2018-10-11T10:47:11.996Z,18.41
2018-10-11T10:48:12.039Z,18.50
2018-10-11T10:49:12.080Z,18.45
2018-10-11T10:50:12.127Z,18.48
2018-10-11T10:51:12.168Z,18.55
2018-10-11T10:52:12.226Z,18.55
2018-10-11T10:53:12.253Z,18.55
2018-10-11T10:54:12.344Z,18.54
2018-10-11T10:55:12.338Z,18.55
2018-10-11T10:56:12.388Z,18.57
2018-10-11T10:57:12.424Z,18.52
2018-10-11T10:58:12.469Z,18.55
2018-10-11T10:59:12.518Z,18.65
2018-10-11T11:00:12.554Z,18.73
2018-10-11T11:01:12.598Z,18.78
2018-10-11T11:02:12.642Z,18.80
2018-10-11T11:03:12.685Z,18.70
2018-10-11T11:04:12.727Z,18.81
2018-10-11T11:05:12.774Z,18.82
2018-10-11T11:06:12.821Z,18.92
2018-10-11T11:07:12.878Z,18.98
2018-10-11T11:08:12.904Z,19.08
2018-10-11T11:09:12.941Z,19.13
2018-10-11T11:10:12.988Z,19.10
2018-10-11T11:11:13.043Z,19.06
2018-10-11T11:12:13.141Z,19.16
2018-10-11T11:13:13.168Z,19.22
2018-10-11T11:14:13.158Z,19.22
2018-10-11T11:15:13.303Z,19.26
2018-10-11T11:16:13.248Z,19.32
2018-10-11T11:17:13.290Z,19.40
2018-10-11T11:18:13.335Z,19.47
2018-10-11T11:19:13.376Z,19.48
2018-10-11T11:20:13.425Z,19.47
2018-10-11T11:21:13.464Z,19.56
2018-10-11T11:22:13.513Z,19.54
2018-10-11T11:23:13.552Z,19.59
2018-10-11T11:24:13.626Z,19.56
2018-10-11T11:25:13.668Z,19.46
2018-10-11T11:26:13.683Z,19.55
2018-10-11T11:27:13.732Z,19.51
2018-10-11T11:28:13.782Z,19.65
2018-10-11T11:29:13.807Z,19.61
2018-10-11T11:30:13.852Z,19.65
2018-10-11T11:31:13.945Z,19.71
2018-10-11T11:32:13.941Z,19.74
2018-10-11T11:33:13.982Z,19.83
2018-10-11T11:34:14.027Z,19.78
2018-10-11T11:35:14.076Z,19.77
2018-10-11T11:36:14.112Z,19.84
2018-10-11T11:37:14.154Z,19.80
2018-10-11T11:38:14.203Z,19.83
2018-10-11T11:39:14.242Z,19.80
2018-10-11T11:40:14.295Z,19.78
2018-10-11T11:41:14.336Z,19.88
2018-10-11T11:42:14.373Z,19.91
2018-10-11T11:43:14.416Z,19.95
2018-10-11T11:44:14.460Z,19.99
2018-10-11T11:45:14.507Z,19.99
2018-10-11T11:46:14.550Z,20.03
2018-10-11T11:47:14.596Z,20.03
2018-10-11T11:48:14.648Z,20.10
2018-10-11T11:49:14.680Z,20.14
2018-10-11T11:50:14.723Z,20.13
2018-10-11T11:51:14.763Z,20.21
2018-10-11T11:52:14.846Z,20.23
2018-10-11T11:53:14.926Z,20.21
2018-10-11T11:54:14.897Z,20.21
2018-10-11T11:55:14.948Z,20.26
2018-10-11T11:56:14.991Z,20.11
2018-10-11T11:57:15.031Z,20.29
2018-10-11T11:58:15.085Z,20.24
2018-10-11T11:59:15.122Z,20.16
2018-10-11T12:00:15.166Z,20.11
2018-10-11T12:01:15.200Z,20.20
2018-10-11T12:02:15.305Z,20.21
2018-10-11T12:03:15.288Z,20.31
2018-10-11T12:04:15.332Z,20.26
2018-10-11T12:05:15.475Z,20.31
2018-10-11T12:06:15.418Z,20.28
2018-10-11T12:07:15.461Z,20.38
2018-10-11T12:08:15.507Z,20.29
2018-10-11T12:09:15.552Z,20.33
2018-10-11T12:10:15.704Z,20.43
2018-10-11T12:11:15.643Z,20.36
2018-10-11T12:12:15.690Z,20.42
2018-10-11T12:13:15.728Z,20.35
2018-10-11T12:14:15.770Z,20.39
2018-10-11T12:15:16.012Z,20.43
2018-10-11T12:16:15.854Z,20.57
2018-10-11T12:17:15.930Z,20.55
2018-10-11T12:18:15.943Z,20.57
2018-10-11T12:19:15.990Z,20.61
2018-10-11T12:20:16.030Z,20.66
2018-10-11T12:21:16.080Z,20.62
2018-10-11T12:22:16.129Z,20.73
2018-10-11T12:23:16.161Z,20.79
2018-10-11T12:24:16.205Z,20.84
2018-10-11T12:25:16.249Z,20.80
2018-10-11T12:26:16.304Z,20.87
2018-10-11T12:27:16.492Z,20.84
2018-10-11T12:28:16.418Z,20.97
2018-10-11T12:29:16.424Z,20.97
2018-10-11T12:30:16.469Z,20.97
2018-10-11T12:31:16.511Z,21.01
2018-10-11T12:32:16.554Z,21.07
2018-10-11T12:33:16.608Z,21.14
2018-10-11T12:34:16.643Z,21.13
2018-10-11T12:35:16.695Z,21.17
2018-10-11T12:36:16.784Z,21.14
2018-10-11T12:37:16.775Z,21.16
2018-10-11T12:38:16.819Z,21.14
2018-10-11T12:39:16.863Z,21.13
2018-10-11T12:40:16.905Z,21.19
2018-10-11T12:41:16.950Z,21.25
2018-10-11T12:42:17.084Z,21.21
2018-10-11T12:43:17.104Z,21.17
2018-10-11T12:44:17.089Z,21.27
2018-10-11T12:45:17.304Z,21.21
2018-10-11T12:46:17.748Z,21.24
2018-10-11T12:47:17.227Z,21.22
2018-10-11T12:48:17.272Z,21.29
2018-10-11T12:49:17.430Z,21.21
2018-10-11T12:50:17.347Z,21.35
2018-10-11T12:51:17.389Z,21.24
2018-10-11T12:52:17.433Z,21.28
2018-10-11T12:53:17.483Z,21.28
2018-10-11T12:54:17.526Z,21.16
2018-10-11T12:55:17.567Z,21.31
2018-10-11T12:56:17.688Z,21.34
2018-10-11T12:57:20.369Z,21.38
2018-10-11T12:58:17.701Z,21.24
2018-10-11T12:59:17.750Z,21.34
2018-10-11T13:00:17.788Z,21.32
2018-10-11T13:01:21.128Z,21.29
2018-10-11T13:02:17.874Z,21.32
2018-10-11T13:03:18.093Z,21.28
2018-10-11T13:04:17.962Z,21.32
2018-10-11T13:05:18.003Z,21.37
2018-10-11T13:06:18.059Z,21.42
2018-10-11T13:07:18.096Z,21.38
2018-10-11T13:08:18.144Z,21.49